createdAt,value
2018-06-03T00:00:52.028Z,18.10
2018-06-03T00:05:54.729Z,18.23
2018-06-03T00:10:57.227Z,17.90
2018-06-03T00:15:59.747Z,18.20
2018-06-03T00:21:28.060Z,18.33
2018-06-03T00:26:30.548Z,16.97
2018-06-03T00:31:33.044Z,16.70
2018-06-03T00:36:46.401Z,15.13
2018-06-03T00:41:48.927Z,14.03
2018-06-03T00:46:51.412Z,13.80
2018-06-03T00:51:53.899Z,14.03
2018-06-03T00:57:08.107Z,14.20
2018-06-03T01:02:10.591Z,12.77
2018-06-03T01:07:13.080Z,13.17
2018-06-03T01:12:15.572Z,16.03
2018-06-03T01:17:18.052Z,11.77
2018-06-03T01:22:21.305Z,12.23
2018-06-03T01:27:23.792Z,11.87
2018-06-03T01:32:26.276Z,11.93
2018-06-03T01:37:28.783Z,12.10
2018-06-03T01:42:31.264Z,15.00
2018-06-03T01:47:33.740Z,9.73
2018-06-03T01:52:36.233Z,12.10
2018-06-03T01:57:38.716Z,12.03
2018-06-03T02:02:41.200Z,12.73
2018-06-03T02:07:43.687Z,10.47
2018-06-03T02:12:46.179Z,11.80
2018-06-03T02:17:48.664Z,10.73
2018-06-03T02:22:51.154Z,9.30
2018-06-03T02:27:53.676Z,10.20
2018-06-03T02:32:56.148Z,10.00
2018-06-03T02:37:58.631Z,8.77
2018-06-03T02:43:01.116Z,9.83
2018-06-03T02:48:03.595Z,9.53
2018-06-03T02:53:06.077Z,10.53
2018-06-03T02:58:08.572Z,9.23
2018-06-03T03:03:11.047Z,11.20
2018-06-03T03:08:13.525Z,8.47
2018-06-03T03:13:16.008Z,9.33
2018-06-03T03:18:18.502Z,9.10
2018-06-03T03:23:20.992Z,8.30
2018-06-03T03:28:23.468Z,8.17
2018-06-03T03:33:25.953Z,10.80
2018-06-03T03:38:28.428Z,7.80
2018-06-03T03:43:31.683Z,16.57
2018-06-03T03:48:34.161Z,7.93
2018-06-03T03:53:36.640Z,9.00
2018-06-03T03:58:39.118Z,9.47
2018-06-03T04:03:42.383Z,9.43
2018-06-03T04:08:44.860Z,8.77
2018-06-03T04:13:47.349Z,10.30
2018-06-03T04:18:49.820Z,9.17
2018-06-03T04:23:52.303Z,9.70
2018-06-03T04:28:55.563Z,9.70
2018-06-03T04:34:31.387Z,7.97
2018-06-03T04:39:34.619Z,16.60
2018-06-03T04:44:37.860Z,10.90
2018-06-03T04:49:41.077Z,10.13
2018-06-03T04:54:44.304Z,11.10
2018-06-03T04:59:47.520Z,10.80
2018-06-03T05:04:50.747Z,11.10
2018-06-03T05:09:53.980Z,12.77
2018-06-03T05:14:57.203Z,10.90
2018-06-03T05:20:00.443Z,12.97
2018-06-03T05:25:03.659Z,11.43
2018-06-03T05:30:06.900Z,14.43
2018-06-03T05:35:10.124Z,12.50
2018-06-03T05:40:13.360Z,12.40
2018-06-03T05:45:16.603Z,14.40
2018-06-03T05:50:19.831Z,15.70
2018-06-03T05:55:22.831Z,15.10
2018-06-03T06:00:26.072Z,13.30
2018-06-03T06:05:29.331Z,14.60
2018-06-03T06:10:32.551Z,20.87
2018-06-03T06:15:35.779Z,17.47
2018-06-03T06:20:39.019Z,14.87
2018-06-03T06:25:42.247Z,15.33
2018-06-03T06:30:45.482Z,18.03
2018-06-03T06:35:48.736Z,18.87
2018-06-03T06:40:51.959Z,18.97
2018-06-03T06:45:55.207Z,22.57
2018-06-03T06:50:58.452Z,21.60
2018-06-03T06:56:01.694Z,15.30
2018-06-03T07:01:04.912Z,14.90
2018-06-03T07:06:08.177Z,16.63
2018-06-03T07:11:11.392Z,15.77
2018-06-03T07:16:14.612Z,17.73
2018-06-03T07:21:17.687Z,16.53
2018-06-03T07:26:20.908Z,19.80
2018-06-03T07:31:24.139Z,17.40
2018-06-03T07:36:27.364Z,23.93
2018-06-03T07:41:30.579Z,16.93
2018-06-03T07:46:33.815Z,22.97
2018-06-03T07:51:37.028Z,33.27
2018-06-03T07:56:40.248Z,25.50
2018-06-03T08:01:43.535Z,27.80
2018-06-03T08:06:46.792Z,25.93
2018-06-03T08:11:50.092Z,24.07
2018-06-03T08:16:53.359Z,29.07
2018-06-03T08:21:56.591Z,27.30
2018-06-03T08:26:59.808Z,28.43
2018-06-03T08:32:03.091Z,27.20
2018-06-03T08:37:06.361Z,25.33
2018-06-03T08:42:09.591Z,25.70
2018-06-03T08:47:12.822Z,32.27
2018-06-03T08:52:16.145Z,29.27
2018-06-03T08:57:19.408Z,52.23
2018-06-03T09:02:22.635Z,64.57
2018-06-03T09:07:25.883Z,57.53
2018-06-03T09:12:29.119Z,38.63
2018-06-03T09:17:32.348Z,73.40
2018-06-03T09:22:35.577Z,69.27
2018-06-03T09:27:38.868Z,76.10
2018-06-03T09:32:42.105Z,65.23
2018-06-03T09:37:45.459Z,70.03
2018-06-03T09:42:48.937Z,41.60
2018-06-03T09:47:52.170Z,49.13
2018-06-03T09:52:55.401Z,43.73
2018-06-03T09:57:58.635Z,43.20
2018-06-03T10:03:02.372Z,88.90
2018-06-03T10:08:05.629Z,84.47
2018-06-03T10:13:08.911Z,59.60
2018-06-03T10:18:12.139Z,76.07
2018-06-03T10:23:15.369Z,70.63
2018-06-03T10:28:18.609Z,44.97
2018-06-03T10:33:22.096Z,49.20
2018-06-03T10:38:25.362Z,63.87
2018-06-03T10:43:28.603Z,49.47
2018-06-03T10:48:31.844Z,65.20
2018-06-03T10:53:35.132Z,41.30
2018-06-03T10:58:38.389Z,43.93
2018-06-03T11:03:43.812Z,47.67
2018-06-03T11:08:47.061Z,50.23
2018-06-03T11:13:50.300Z,38.10
2018-06-03T11:18:53.533Z,44.50
2018-06-03T11:23:56.787Z,39.70
2018-06-03T11:29:00.014Z,49.10
2018-06-03T11:34:03.752Z,54.13
2018-06-03T11:39:08.303Z,43.67
2018-06-03T11:44:11.541Z,43.40
2018-06-03T11:49:14.801Z,42.80
2018-06-03T11:54:18.044Z,40.80
2018-06-03T11:59:32.759Z,50.83
2018-06-03T12:04:36.226Z,48.83
2018-06-03T12:09:39.487Z,54.47
2018-06-03T12:14:42.735Z,49.30
2018-06-03T12:19:46.010Z,50.20
2018-06-03T12:24:52.065Z,39.63
2018-06-03T12:30:03.656Z,44.47
2018-06-03T12:36:10.233Z,57.63
2018-06-03T12:41:13.635Z,48.87
2018-06-03T12:46:18.197Z,48.90
2018-06-03T12:51:21.677Z,49.47
2018-06-03T12:56:25.159Z,56.87
2018-06-03T13:01:28.602Z,42.47
2018-06-03T13:06:32.025Z,46.13
2018-06-03T13:11:35.293Z,44.70
2018-06-03T13:16:38.607Z,51.20
2018-06-03T13:21:41.848Z,42.53
2018-06-03T13:26:45.088Z,36.27
2018-06-03T13:31:48.324Z,36.33
2018-06-03T13:36:51.584Z,35.93
2018-06-03T13:41:54.860Z,32.97
2018-06-03T13:46:58.640Z,26.97
2018-06-03T13:52:01.893Z,27.20
2018-06-03T13:57:05.147Z,25.03
2018-06-03T14:02:08.409Z,23.27
2018-06-03T14:07:11.667Z,27.70
2018-06-03T14:12:14.908Z,26.50
2018-06-03T14:17:18.164Z,18.43
2018-06-03T14:22:21.532Z,17.30
2018-06-03T14:27:25.082Z,21.00
2018-06-03T14:32:28.327Z,21.93
2018-06-03T14:37:31.612Z,21.17
2018-06-03T14:42:34.650Z,19.13
2018-06-03T14:47:47.696Z,20.03
2018-06-03T14:52:50.964Z,22.93
2018-06-03T14:57:54.663Z,21.37
2018-06-03T15:02:59.109Z,16.70
2018-06-03T15:08:02.555Z,20.20
2018-06-03T15:13:05.857Z,22.67
2018-06-03T15:18:09.139Z,22.70
2018-06-03T15:23:12.396Z,20.27
2018-06-03T15:28:15.632Z,23.80
2018-06-03T15:33:18.886Z,24.03
2018-06-03T15:38:22.203Z,20.50
2018-06-03T15:43:25.427Z,15.63
2018-06-03T15:48:28.637Z,23.93
2018-06-03T15:53:31.611Z,20.33
2018-06-03T15:58:34.991Z,18.60
2018-06-03T16:03:38.227Z,18.30
2018-06-03T16:08:41.531Z,21.20
2018-06-03T16:13:44.755Z,15.13
2018-06-03T16:18:47.993Z,15.57
2018-06-03T16:23:51.329Z,18.00
2018-06-03T16:28:54.512Z,17.80
2018-06-03T16:33:57.725Z,13.80
2018-06-03T16:39:01.776Z,13.27
2018-06-03T16:44:05.012Z,68.20
2018-06-03T16:49:08.241Z,34.50
2018-06-03T16:54:11.472Z,23.53
2018-06-03T16:59:14.681Z,21.37
2018-06-03T17:04:17.912Z,20.80
2018-06-03T17:09:21.131Z,19.23
2018-06-03T17:14:24.439Z,14.17
2018-06-03T17:19:27.656Z,12.27
2018-06-03T17:24:30.892Z,15.07
2018-06-03T17:29:34.803Z,12.43
2018-06-03T17:34:38.004Z,12.03
2018-06-03T17:39:41.211Z,12.83
2018-06-03T17:46:52.604Z,12.03
2018-06-03T17:51:55.816Z,11.70
2018-06-03T17:56:59.036Z,11.20
2018-06-03T18:02:02.282Z,12.30
2018-06-03T18:07:05.508Z,10.40
2018-06-03T18:12:08.756Z,11.47
2018-06-03T18:17:12.001Z,10.33
2018-06-03T18:22:15.195Z,10.80
2018-06-03T18:27:18.412Z,14.10
2018-06-03T18:32:21.635Z,10.10
2018-06-03T18:37:24.857Z,10.87
2018-06-03T18:42:28.096Z,10.50
2018-06-03T18:47:31.321Z,10.80
2018-06-03T18:52:34.563Z,11.67
2018-06-03T18:57:37.810Z,10.43
2018-06-03T19:02:41.003Z,15.70
2018-06-03T19:07:44.250Z,11.60
2018-06-03T19:12:47.936Z,11.80
2018-06-03T19:17:51.453Z,11.83
2018-06-03T19:22:54.700Z,10.47
2018-06-03T19:27:57.936Z,10.40
2018-06-03T19:33:01.152Z,11.63
2018-06-03T19:38:04.364Z,10.07
2018-06-03T19:43:07.573Z,10.23
2018-06-03T19:48:10.779Z,11.10
2018-06-03T19:53:14.151Z,10.67
2018-06-03T19:58:17.346Z,9.00
2018-06-03T20:03:20.551Z,9.50
2018-06-03T20:08:23.793Z,9.07
2018-06-03T20:13:27.010Z,10.53
2018-06-03T20:18:30.351Z,11.30
2018-06-03T20:23:34.535Z,8.73
2018-06-03T20:28:37.803Z,10.13
2018-06-03T20:33:41.035Z,9.50
2018-06-03T20:38:44.259Z,9.50
2018-06-03T20:43:47.475Z,10.13
2018-06-03T20:48:50.705Z,9.60
2018-06-03T20:53:53.925Z,9.80
2018-06-03T20:58:57.151Z,9.83
2018-06-03T21:04:00.355Z,10.10
2018-06-03T21:09:04.609Z,9.80
2018-06-03T21:14:07.844Z,9.87
2018-06-03T21:19:11.093Z,9.10
2018-06-03T21:24:14.368Z,9.07
2018-06-03T21:29:17.613Z,13.37
2018-06-03T21:34:20.887Z,14.37
2018-06-03T21:39:24.136Z,18.63
2018-06-03T21:44:27.380Z,16.37
2018-06-03T21:49:30.647Z,15.07
2018-06-03T21:54:33.875Z,14.80
2018-06-03T21:59:37.167Z,15.20
2018-06-03T22:04:40.421Z,17.17
2018-06-03T22:09:43.676Z,17.43
2018-06-03T22:14:46.952Z,14.73
2018-06-03T22:19:50.196Z,16.53
2018-06-03T22:24:53.507Z,15.33
2018-06-03T22:29:56.763Z,13.17
2018-06-03T22:35:00.024Z,16.27
2018-06-03T22:40:03.312Z,13.27
2018-06-03T22:45:06.565Z,13.87
2018-06-03T22:50:09.897Z,12.60
2018-06-03T22:55:13.079Z,11.73
2018-06-03T23:00:23.020Z,12.90
2018-06-03T23:05:26.447Z,11.53
2018-06-03T23:10:29.699Z,14.43
2018-06-03T23:15:32.954Z,12.80
2018-06-03T23:20:36.203Z,13.97
2018-06-03T23:25:39.419Z,12.43
2018-06-03T23:30:42.615Z,11.50
2018-06-03T23:35:45.840Z,15.07
2018-06-03T23:40:49.096Z,15.47
2018-06-03T23:45:52.329Z,12.90
2018-06-03T23:50:55.556Z,13.27
2018-06-03T23:55:58.768Z,13.20
